createdAt,value
2018-04-18T00:01:09.537Z,18.23
2018-04-18T00:03:37.824Z,18.57
2018-04-18T00:06:06.003Z,22.13
2018-04-18T00:08:34.342Z,17.50
2018-04-18T00:11:02.450Z,25.17
2018-04-18T00:13:30.790Z,18.27
2018-04-18T00:15:59.191Z,15.83
2018-04-18T00:18:27.561Z,18.53
2018-04-18T00:20:55.942Z,20.90
2018-04-18T00:23:24.321Z,18.07
2018-04-18T00:25:52.768Z,19.13
2018-04-18T00:28:20.998Z,21.67
2018-04-18T00:30:49.116Z,20.77
2018-04-18T00:33:17.410Z,19.87
2018-04-18T00:35:45.595Z,16.20
2018-04-18T00:38:13.693Z,20.40
2018-04-18T00:40:42.060Z,16.17
2018-04-18T00:43:10.395Z,23.30
2018-04-18T00:45:38.868Z,18.10
2018-04-18T00:48:06.940Z,15.73
2018-04-18T00:50:35.263Z,16.83
2018-04-18T00:53:03.552Z,19.00
2018-04-18T00:55:31.638Z,17.93
2018-04-18T00:58:00.092Z,19.97
2018-04-18T01:00:28.151Z,15.60
2018-04-18T01:02:56.289Z,20.70
2018-04-18T01:05:24.540Z,19.17
2018-04-18T01:07:52.968Z,15.60
2018-04-18T01:10:21.350Z,18.60
2018-04-18T01:12:49.624Z,19.03
2018-04-18T01:15:17.802Z,21.83
2018-04-18T01:17:46.163Z,23.70
2018-04-18T01:20:14.555Z,20.30
2018-04-18T01:22:42.661Z,23.00
2018-04-18T01:25:10.875Z,21.00
2018-04-18T01:27:38.996Z,21.07
2018-04-18T01:30:07.225Z,20.40
2018-04-18T01:32:35.519Z,25.37
2018-04-18T01:35:03.787Z,17.43
2018-04-18T01:37:31.945Z,17.40
2018-04-18T01:40:00.320Z,21.37
2018-04-18T01:42:28.519Z,20.23
2018-04-18T01:44:56.616Z,19.20
2018-04-18T01:47:24.757Z,22.07
2018-04-18T01:49:52.864Z,19.33
2018-04-18T01:52:21.156Z,19.10
2018-04-18T01:54:49.300Z,23.60
2018-04-18T01:57:17.673Z,19.47
2018-04-18T01:59:46.038Z,19.30
2018-04-18T02:02:14.433Z,22.90
2018-04-18T02:04:42.537Z,19.23
2018-04-18T02:07:10.859Z,19.90
2018-04-18T02:09:38.976Z,18.07
2018-04-18T02:12:07.160Z,19.53
2018-04-18T02:14:35.712Z,19.20
2018-04-18T02:17:03.921Z,19.97
2018-04-18T02:19:32.140Z,19.57
2018-04-18T02:22:00.281Z,22.07
2018-04-18T02:24:28.583Z,18.63
2018-04-18T02:26:56.696Z,17.83
2018-04-18T02:29:24.833Z,19.67
2018-04-18T02:31:53.027Z,19.67
2018-04-18T02:34:21.115Z,16.17
2018-04-18T02:36:49.345Z,17.70
2018-04-18T02:39:17.652Z,16.90
2018-04-18T02:41:45.939Z,19.73
2018-04-18T02:44:14.072Z,17.83
2018-04-18T02:46:42.196Z,21.17
2018-04-18T02:49:10.312Z,18.77
2018-04-18T02:51:38.484Z,19.57
2018-04-18T02:54:06.650Z,19.80
2018-04-18T02:56:34.744Z,19.50
2018-04-18T02:59:03.207Z,17.67
2018-04-18T03:01:31.493Z,18.87
2018-04-18T03:03:59.651Z,17.90
2018-04-18T03:06:27.964Z,17.67
2018-04-18T03:08:56.327Z,18.60
2018-04-18T03:11:24.691Z,20.20
2018-04-18T03:13:52.983Z,16.87
2018-04-18T03:16:21.171Z,17.07
2018-04-18T03:18:49.611Z,20.70
2018-04-18T03:21:17.777Z,18.07
2018-04-18T03:23:46.005Z,18.27
2018-04-18T03:26:14.299Z,20.40
2018-04-18T03:28:42.431Z,18.77
2018-04-18T03:31:10.731Z,20.60
2018-04-18T03:33:38.822Z,24.80
2018-04-18T03:36:06.989Z,21.90
2018-04-18T03:38:35.308Z,24.13
2018-04-18T03:41:03.682Z,20.83
2018-04-18T03:43:32.052Z,21.77
2018-04-18T03:46:00.336Z,20.67
2018-04-18T03:48:28.434Z,19.57
2018-04-18T03:50:56.513Z,20.50
2018-04-18T03:53:24.593Z,20.07
2018-04-18T03:55:52.734Z,17.60
2018-04-18T03:58:21.809Z,17.63
2018-04-18T04:00:50.878Z,19.97
2018-04-18T04:03:18.964Z,19.40
2018-04-18T04:05:47.493Z,16.70
2018-04-18T04:08:15.582Z,20.20
2018-04-18T04:10:43.908Z,20.60
2018-04-18T04:13:12.174Z,17.93
2018-04-18T04:15:40.395Z,20.00
2018-04-18T04:18:20.453Z,22.20
2018-04-18T04:21:00.586Z,20.43
2018-04-18T04:23:40.612Z,20.33
2018-04-18T04:26:08.722Z,19.73
2018-04-18T04:28:37.023Z,20.57
2018-04-18T04:31:05.506Z,20.57
2018-04-18T04:33:33.801Z,23.17
2018-04-18T04:36:01.944Z,20.03
2018-04-18T04:38:30.233Z,21.77
2018-04-18T04:40:58.839Z,20.73
2018-04-18T04:43:26.985Z,23.13
2018-04-18T04:45:55.312Z,21.00
2018-04-18T04:48:23.730Z,18.13
2018-04-18T04:50:53.324Z,21.23
2018-04-18T04:53:22.234Z,25.83
2018-04-18T04:55:50.734Z,22.43
2018-04-18T04:58:19.063Z,21.17
2018-04-18T05:00:47.306Z,24.53
2018-04-18T05:03:16.192Z,22.97
2018-04-18T05:05:44.528Z,22.07
2018-04-18T05:08:12.929Z,21.87
2018-04-18T05:10:41.277Z,23.20
2018-04-18T05:13:09.442Z,23.90
2018-04-18T05:15:37.622Z,21.70
2018-04-18T05:18:05.829Z,23.50
2018-04-18T05:20:33.946Z,24.13
2018-04-18T05:23:02.149Z,23.20
2018-04-18T05:25:30.492Z,20.10
2018-04-18T05:27:58.977Z,23.63
2018-04-18T05:30:27.347Z,23.80
2018-04-18T05:32:55.770Z,23.00
2018-04-18T05:35:24.207Z,20.87
2018-04-18T05:37:52.660Z,25.53
2018-04-18T05:40:20.929Z,25.63
2018-04-18T05:42:49.244Z,23.67
2018-04-18T05:45:17.493Z,28.07
2018-04-18T05:47:45.713Z,23.00
2018-04-18T05:50:13.828Z,24.53
2018-04-18T05:52:41.908Z,24.60
2018-04-18T05:55:10.550Z,24.47
2018-04-18T05:57:38.698Z,28.80
2018-04-18T06:00:07.103Z,25.30
2018-04-18T06:02:35.687Z,24.67
2018-04-18T06:05:04.049Z,27.80
2018-04-18T06:07:32.329Z,24.37
2018-04-18T06:10:00.596Z,25.67
2018-04-18T06:12:29.047Z,23.00
2018-04-18T06:14:57.409Z,22.13
2018-04-18T06:17:25.849Z,25.07
2018-04-18T06:19:54.159Z,28.57
2018-04-18T06:22:22.330Z,25.57
2018-04-18T06:24:50.849Z,22.03
2018-04-18T06:27:19.258Z,24.27
2018-04-18T06:29:47.554Z,24.40
2018-04-18T06:32:16.012Z,23.50
2018-04-18T06:34:44.345Z,20.67
2018-04-18T06:37:13.013Z,22.47
2018-04-18T06:39:41.738Z,25.63
2018-04-18T06:42:10.369Z,23.23
2018-04-18T06:44:38.511Z,23.43
2018-04-18T06:47:07.541Z,23.67
2018-04-18T06:49:35.785Z,23.53
2018-04-18T06:52:04.244Z,20.90
2018-04-18T06:54:32.629Z,25.07
2018-04-18T06:57:00.986Z,23.63
2018-04-18T06:59:29.122Z,20.80
2018-04-18T07:01:57.522Z,26.03
2018-04-18T07:04:25.899Z,21.50
2018-04-18T07:06:54.198Z,20.50
2018-04-18T07:09:22.778Z,23.77
2018-04-18T07:11:50.879Z,24.43
2018-04-18T07:14:18.974Z,23.97
2018-04-18T07:16:47.208Z,22.70
2018-04-18T07:19:15.573Z,17.07
2018-04-18T07:21:43.877Z,20.73
2018-04-18T07:24:12.134Z,20.87
2018-04-18T07:26:40.974Z,20.10
2018-04-18T07:29:09.099Z,19.60
2018-04-18T07:31:37.449Z,21.50
2018-04-18T07:34:05.980Z,21.33
2018-04-18T07:36:34.153Z,21.23
2018-04-18T07:39:02.509Z,20.53
2018-04-18T07:41:30.956Z,20.90
2018-04-18T07:43:59.134Z,25.10
2018-04-18T07:46:27.641Z,19.60
2018-04-18T07:48:56.311Z,18.43
2018-04-18T07:51:24.451Z,22.30
2018-04-18T07:53:53.071Z,23.23
2018-04-18T07:56:21.474Z,24.83
2018-04-18T07:58:49.910Z,25.27
2018-04-18T08:01:18.328Z,26.70
2018-04-18T08:03:46.407Z,27.57
2018-04-18T08:06:14.795Z,21.70
2018-04-18T08:08:43.339Z,21.53
2018-04-18T08:11:11.743Z,22.37
2018-04-18T08:13:40.193Z,27.07
2018-04-18T08:16:08.431Z,26.47
2018-04-18T08:18:36.838Z,25.87
2018-04-18T08:21:05.507Z,23.47
2018-04-18T08:23:33.587Z,28.87
2018-04-18T08:26:01.745Z,26.90
2018-04-18T08:28:30.155Z,24.27
2018-04-18T08:30:58.542Z,26.77
2018-04-18T08:33:26.829Z,28.00
2018-04-18T08:35:55.749Z,24.27
2018-04-18T08:38:24.643Z,26.67
2018-04-18T08:40:53.229Z,30.47
2018-04-18T08:43:21.869Z,32.47
2018-04-18T08:45:50.525Z,30.27
2018-04-18T08:48:18.931Z,27.13
2018-04-18T08:50:47.599Z,27.63
2018-04-18T08:53:15.915Z,26.10
2018-04-18T08:55:44.144Z,27.57
2018-04-18T08:58:12.465Z,25.53
2018-04-18T09:00:40.694Z,25.10
2018-04-18T09:03:09.071Z,32.50
2018-04-18T09:05:37.558Z,30.40
2018-04-18T09:08:05.709Z,23.70
2018-04-18T09:10:33.868Z,32.30
2018-04-18T09:13:02.109Z,29.70
2018-04-18T09:15:30.871Z,32.73
2018-04-18T09:17:59.232Z,38.03
2018-04-18T09:20:27.595Z,29.37
2018-04-18T09:22:56.029Z,34.87
2018-04-18T09:25:25.055Z,36.97
2018-04-18T09:27:53.681Z,39.30
2018-04-18T09:30:22.576Z,36.20
2018-04-18T09:32:50.909Z,36.97
2018-04-18T09:35:18.996Z,38.80
2018-04-18T09:37:47.495Z,40.63
2018-04-18T09:40:15.886Z,41.03
2018-04-18T09:42:44.195Z,42.30
2018-04-18T09:45:12.633Z,40.93
2018-04-18T09:47:40.902Z,35.97
2018-04-18T09:50:09.333Z,47.40
2018-04-18T09:52:37.708Z,45.00
2018-04-18T09:55:05.986Z,39.40
2018-04-18T09:57:34.129Z,41.07
2018-04-18T10:00:02.600Z,38.33
2018-04-18T10:02:30.858Z,41.27
2018-04-18T10:05:04.674Z,39.23
2018-04-18T10:07:32.946Z,44.20
2018-04-18T10:10:01.183Z,45.73
2018-04-18T10:12:29.339Z,43.43
2018-04-18T10:14:57.712Z,39.07
2018-04-18T10:17:25.852Z,43.27
2018-04-18T10:19:54.128Z,39.97
2018-04-18T10:22:22.609Z,43.23
2018-04-18T10:24:50.840Z,43.03
2018-04-18T10:27:18.973Z,44.67
2018-04-18T10:29:47.073Z,37.50
2018-04-18T10:32:15.706Z,38.93
2018-04-18T10:34:44.097Z,38.43
2018-04-18T10:37:13.249Z,38.90
2018-04-18T10:39:41.701Z,39.97
2018-04-18T10:42:09.963Z,41.03
2018-04-18T10:44:38.153Z,42.70
2018-04-18T10:47:06.271Z,36.30
2018-04-18T10:49:34.354Z,39.10
2018-04-18T10:52:02.527Z,43.47
2018-04-18T10:54:30.857Z,39.43
2018-04-18T10:56:59.139Z,36.43
2018-04-18T10:59:27.359Z,40.03
2018-04-18T11:01:55.718Z,38.27
2018-04-18T11:04:23.866Z,35.30
2018-04-18T11:06:52.033Z,36.83
2018-04-18T11:09:20.293Z,34.17
2018-04-18T11:11:48.509Z,35.97
2018-04-18T11:14:16.837Z,36.83
2018-04-18T11:16:45.065Z,39.90
2018-04-18T11:19:13.243Z,36.40
2018-04-18T11:21:41.377Z,35.70
2018-04-18T11:24:09.639Z,38.60
2018-04-18T11:26:37.893Z,38.40
2018-04-18T11:29:05.982Z,36.07
2018-04-18T11:31:34.118Z,41.17
2018-04-18T11:34:02.647Z,39.80
2018-04-18T11:36:30.792Z,42.13
2018-04-18T11:38:59.016Z,36.63
2018-04-18T11:41:27.187Z,38.07
2018-04-18T11:43:55.443Z,34.33
2018-04-18T11:46:23.694Z,39.73
2018-04-18T11:48:51.987Z,39.77
2018-04-18T11:51:20.436Z,44.93
2018-04-18T11:53:48.535Z,38.53
2018-04-18T11:56:16.680Z,34.60
2018-04-18T11:58:45.053Z,32.53
2018-04-18T12:01:13.337Z,34.63
2018-04-18T12:03:41.515Z,38.63
2018-04-18T12:06:09.937Z,34.40
2018-04-18T12:08:38.263Z,32.63
2018-04-18T12:11:06.585Z,35.73
2018-04-18T12:13:35.024Z,33.00
2018-04-18T12:16:03.401Z,30.77
2018-04-18T12:18:31.674Z,32.57
2018-04-18T12:21:00.425Z,30.90
2018-04-18T12:23:28.794Z,30.07
2018-04-18T12:25:56.915Z,29.77
2018-04-18T12:28:25.231Z,33.80
2018-04-18T12:30:53.477Z,33.17
2018-04-18T12:33:21.677Z,31.03
2018-04-18T12:35:50.062Z,33.83
2018-04-18T12:38:18.524Z,29.07
2018-04-18T12:40:46.642Z,34.30
2018-04-18T12:43:14.990Z,27.03
2018-04-18T12:45:43.630Z,33.37
2018-04-18T12:48:12.002Z,28.27
2018-04-18T12:50:40.588Z,29.50
2018-04-18T12:53:08.702Z,29.87
2018-04-18T12:55:37.071Z,25.17
2018-04-18T12:58:05.246Z,29.93
2018-04-18T13:00:33.434Z,27.03
2018-04-18T13:03:01.965Z,26.30
2018-04-18T13:05:30.589Z,32.33
2018-04-18T13:07:58.716Z,25.43
2018-04-18T13:10:26.862Z,23.97
2018-04-18T13:12:55.250Z,25.30
2018-04-18T13:15:23.468Z,24.73
2018-04-18T13:17:51.808Z,24.50
2018-04-18T13:20:20.281Z,26.80
2018-04-18T13:22:48.682Z,27.47
2018-04-18T13:25:17.435Z,30.23
2018-04-18T13:27:45.948Z,31.17
2018-04-18T13:30:14.368Z,26.97
2018-04-18T13:32:42.670Z,25.77
2018-04-18T13:35:10.794Z,25.60
2018-04-18T13:37:38.976Z,28.97
2018-04-18T13:40:07.097Z,23.73
2018-04-18T13:42:35.417Z,28.90
2018-04-18T13:45:03.513Z,26.77
2018-04-18T13:47:31.967Z,24.80
2018-04-18T13:50:00.193Z,28.70
2018-04-18T13:52:28.471Z,25.00
2018-04-18T13:54:56.667Z,25.50
2018-04-18T13:57:24.973Z,26.93
2018-04-18T13:59:54.065Z,25.53
2018-04-18T14:02:22.453Z,27.67
2018-04-18T14:04:50.877Z,28.33
2018-04-18T14:07:19.168Z,26.10
2018-04-18T14:09:47.620Z,25.43
2018-04-18T14:12:16.248Z,25.10
2018-04-18T14:14:44.493Z,26.17
2018-04-18T14:17:12.704Z,28.80
2018-04-18T14:19:40.912Z,30.33
2018-04-18T14:22:09.505Z,28.17
2018-04-18T14:24:38.096Z,23.10
2018-04-18T14:27:06.467Z,21.17
2018-04-18T14:29:34.927Z,26.90
2018-04-18T14:32:03.151Z,26.70
2018-04-18T14:34:31.655Z,27.60
2018-04-18T14:37:00.081Z,29.70
2018-04-18T14:39:28.717Z,30.33
2018-04-18T14:41:56.929Z,26.03
2018-04-18T14:44:25.181Z,30.77
2018-04-18T14:46:53.387Z,23.23
2018-04-18T14:49:21.706Z,32.97
2018-04-18T14:51:50.071Z,26.90
2018-04-18T14:54:18.641Z,22.30
2018-04-18T14:56:47.059Z,28.77
2018-04-18T14:59:15.745Z,29.40
2018-04-18T15:01:44.057Z,28.97
2018-04-18T15:04:12.242Z,27.77
2018-04-18T15:06:40.571Z,26.97
2018-04-18T15:09:08.915Z,28.50
2018-04-18T15:11:37.453Z,31.17
2018-04-18T15:14:05.606Z,31.07
2018-04-18T15:16:33.830Z,29.00
2018-04-18T15:19:02.136Z,30.53
2018-04-18T15:21:30.341Z,26.80
2018-04-18T15:23:58.502Z,30.90
2018-04-18T15:26:26.910Z,25.40
2018-04-18T15:28:55.161Z,33.13
2018-04-18T15:31:23.539Z,28.03
2018-04-18T15:33:51.801Z,26.70
2018-04-18T15:36:20.181Z,31.37
2018-04-18T15:38:48.665Z,31.67
2018-04-18T15:41:17.194Z,31.40
2018-04-18T15:43:45.691Z,26.67
2018-04-18T15:46:14.029Z,28.27
2018-04-18T15:48:42.533Z,27.83
2018-04-18T15:51:11.085Z,27.67
2018-04-18T15:53:40.446Z,32.87
2018-04-18T15:56:08.634Z,29.57
2018-04-18T15:58:37.304Z,27.80
2018-04-18T16:01:05.817Z,30.70
2018-04-18T16:03:34.256Z,27.80
2018-04-18T16:06:02.838Z,27.73
2018-04-18T16:08:31.113Z,27.40
2018-04-18T16:10:59.665Z,29.07
2018-04-18T16:13:27.859Z,29.40
2018-04-18T16:15:56.155Z,24.83
2018-04-18T16:18:24.355Z,29.40
2018-04-18T16:20:52.679Z,26.77
2018-04-18T16:23:21.057Z,27.73
2018-04-18T16:25:49.213Z,32.63
2018-04-18T16:28:17.516Z,31.53
2018-04-18T16:30:46.149Z,29.60
2018-04-18T16:33:14.742Z,30.47
2018-04-18T16:35:43.410Z,27.37
2018-04-18T16:38:11.891Z,30.20
2018-04-18T16:40:40.288Z,31.50
2018-04-18T16:43:08.524Z,33.47
2018-04-18T16:45:36.661Z,27.60
2018-04-18T16:48:05.160Z,27.73
2018-04-18T16:50:33.635Z,30.03
2018-04-18T16:53:01.792Z,31.73
2018-04-18T16:55:30.223Z,29.33
2018-04-18T16:57:58.449Z,31.37
2018-04-18T17:00:26.936Z,31.00
2018-04-18T17:02:55.508Z,34.00
2018-04-18T17:05:23.654Z,34.57
2018-04-18T17:07:52.029Z,31.47
2018-04-18T17:10:20.208Z,28.97
2018-04-18T17:12:48.864Z,34.27
2018-04-18T17:15:17.204Z,29.73
2018-04-18T17:17:45.809Z,28.63
2018-04-18T17:20:13.925Z,32.93
2018-04-18T17:22:42.425Z,29.03
2018-04-18T17:25:10.987Z,33.47
2018-04-18T17:27:39.386Z,30.30
2018-04-18T17:30:07.726Z,35.83
2018-04-18T17:32:36.015Z,36.93
2018-04-18T17:35:04.237Z,35.27
2018-04-18T17:37:33.190Z,32.53
2018-04-18T17:40:01.475Z,31.27
2018-04-18T17:42:29.924Z,29.70
2018-04-18T17:44:58.392Z,29.90
2018-04-18T17:47:26.489Z,29.50
2018-04-18T17:49:54.717Z,30.13
2018-04-18T17:52:22.864Z,31.73
2018-04-18T17:54:51.066Z,37.57
2018-04-18T17:57:19.388Z,43.80
2018-04-18T17:59:47.791Z,35.80
2018-04-18T18:02:16.069Z,37.33
2018-04-18T18:04:44.470Z,39.27
2018-04-18T18:07:12.903Z,35.83
2018-04-18T18:09:41.017Z,32.60
2018-04-18T18:12:09.354Z,36.13
2018-04-18T18:14:37.664Z,33.67
2018-04-18T18:17:06.060Z,31.23
2018-04-18T18:19:34.362Z,27.83
2018-04-18T18:22:02.697Z,33.90
2018-04-18T18:24:30.859Z,38.23
2018-04-18T18:26:58.975Z,32.90
2018-04-18T18:29:27.207Z,31.80
2018-04-18T18:31:55.431Z,37.03
2018-04-18T18:34:23.541Z,32.63
2018-04-18T18:36:53.462Z,29.50
2018-04-18T18:39:21.851Z,28.80
2018-04-18T18:41:49.991Z,33.67
2018-04-18T18:44:18.286Z,32.33
2018-04-18T18:46:46.393Z,35.67
2018-04-18T18:49:14.591Z,33.07
2018-04-18T18:51:42.798Z,32.37
2018-04-18T18:54:11.077Z,34.13
2018-04-18T18:56:39.193Z,37.70
2018-04-18T18:59:07.428Z,32.23
2018-04-18T19:01:35.716Z,33.10
2018-04-18T19:04:03.793Z,34.90
2018-04-18T19:06:32.083Z,33.17
2018-04-18T19:09:00.185Z,29.27
2018-04-18T19:11:28.567Z,35.73
2018-04-18T19:13:56.672Z,33.23
2018-04-18T19:16:24.965Z,30.13
2018-04-18T19:18:53.092Z,35.80
2018-04-18T19:21:21.566Z,36.10
2018-04-18T19:23:49.685Z,34.83
2018-04-18T19:26:17.845Z,31.90
2018-04-18T19:28:45.925Z,34.70
2018-04-18T19:31:14.393Z,37.13
2018-04-18T19:33:42.667Z,35.33
2018-04-18T19:36:10.765Z,32.33
2018-04-18T19:38:39.130Z,32.83
2018-04-18T19:41:07.227Z,32.60
2018-04-18T19:43:35.598Z,40.20
2018-04-18T19:46:03.897Z,38.03
2018-04-18T19:48:32.027Z,33.20
2018-04-18T19:51:00.302Z,35.90
2018-04-18T19:53:33.887Z,36.77
2018-04-18T19:56:03.355Z,34.17
2018-04-18T19:58:31.447Z,36.47
2018-04-18T20:01:00.699Z,38.40
2018-04-18T20:03:29.015Z,35.07
2018-04-18T20:05:57.155Z,35.10
2018-04-18T20:08:25.541Z,33.67
2018-04-18T20:10:54.185Z,33.77
2018-04-18T20:13:22.269Z,38.50
2018-04-18T20:15:50.384Z,34.53
2018-04-18T20:18:18.656Z,35.70
2018-04-18T20:20:47.087Z,32.43
2018-04-18T20:23:15.239Z,31.83
2018-04-18T20:25:43.559Z,35.23
2018-04-18T20:28:12.460Z,35.77
2018-04-18T20:30:40.755Z,31.33
2018-04-18T20:33:08.928Z,33.40
2018-04-18T20:35:37.051Z,35.07
2018-04-18T20:38:05.181Z,35.43
2018-04-18T20:40:33.253Z,35.47
2018-04-18T20:43:01.518Z,37.70
2018-04-18T20:45:29.734Z,34.07
2018-04-18T20:47:58.041Z,34.60
2018-04-18T20:50:26.480Z,37.70
2018-04-18T20:52:54.639Z,38.10
2018-04-18T20:55:22.857Z,34.60
2018-04-18T20:57:50.960Z,39.23
2018-04-18T21:00:19.301Z,42.00
2018-04-18T21:02:47.401Z,37.27
2018-04-18T21:05:15.557Z,40.13
2018-04-18T21:07:44.914Z,35.63
2018-04-18T21:10:23.755Z,34.77
2018-04-18T21:12:52.323Z,36.60
2018-04-18T21:15:20.553Z,34.57
2018-04-18T21:17:49.276Z,35.60
2018-04-18T21:20:19.000Z,37.43
2018-04-18T21:22:49.502Z,38.23
2018-04-18T21:25:22.014Z,37.70
2018-04-18T21:27:50.168Z,32.93
2018-04-18T21:30:20.340Z,39.30
2018-04-18T21:32:49.977Z,37.17
2018-04-18T21:35:18.587Z,36.23
2018-04-18T21:37:46.993Z,38.87
2018-04-18T21:40:16.231Z,36.30
2018-04-18T21:42:45.712Z,38.40
2018-04-18T21:45:16.172Z,38.23
2018-04-18T21:47:46.722Z,38.30
2018-04-18T21:50:14.846Z,44.47
2018-04-18T21:52:45.535Z,36.63
2018-04-18T21:55:14.231Z,42.33
2018-04-18T21:57:42.434Z,40.00
2018-04-18T22:00:10.785Z,39.07
2018-04-18T22:02:38.954Z,46.53
2018-04-18T22:05:07.228Z,35.90
2018-04-18T22:07:35.340Z,44.70
2018-04-18T22:10:03.595Z,47.40
2018-04-18T22:12:31.890Z,47.83
2018-04-18T22:15:00.123Z,37.97
2018-04-18T22:17:30.264Z,41.87
2018-04-18T22:20:04.778Z,41.07
2018-04-18T22:22:50.045Z,41.87
2018-04-18T22:25:18.183Z,39.07
2018-04-18T22:27:46.312Z,41.73
2018-04-18T22:30:14.555Z,38.87
2018-04-18T22:32:42.765Z,42.57
2018-04-18T22:35:12.956Z,39.77
2018-04-18T22:37:41.197Z,40.50
2018-04-18T22:40:09.280Z,36.57
2018-04-18T22:42:48.840Z,38.10
2018-04-18T22:45:23.759Z,41.17
2018-04-18T22:53:18.150Z,36.57
2018-04-18T22:55:46.252Z,35.57
2018-04-18T22:58:14.569Z,36.30
2018-04-18T23:00:43.062Z,40.03
2018-04-18T23:03:19.220Z,37.63
2018-04-18T23:08:45.398Z,34.93
2018-04-18T23:14:01.186Z,37.47
2018-04-18T23:16:31.961Z,34.47
2018-04-18T23:19:03.427Z,38.47
2018-04-18T23:21:39.295Z,34.83
2018-04-18T23:24:14.747Z,31.33
2018-04-18T23:29:24.737Z,34.30
2018-04-18T23:31:52.922Z,35.53
2018-04-18T23:34:21.049Z,35.37
2018-04-18T23:36:49.354Z,34.93
2018-04-18T23:39:17.445Z,31.53
2018-04-18T23:41:45.549Z,36.00
2018-04-18T23:44:13.890Z,34.47
2018-04-18T23:46:42.329Z,36.80
2018-04-18T23:49:10.667Z,36.80
2018-04-18T23:51:38.977Z,37.87
2018-04-18T23:54:07.432Z,40.23
2018-04-18T23:56:37.034Z,37.33
2018-04-18T23:59:07.001Z,43.40
